Terminal Aerodrome Forecast
Issued by NWS Spokane, WA

Home | Current Version | Previous Version | Text Only | Print | Product List | Glossary On
Versions: 1 2 3 4 5 6 7 8 9 10 11 12 13 14 15 16 17 18 19 20 21 22 23 24 25 26 27 28
000
FTUS46 KOTX 231813 AAA
TAFGEG
TAF AMD
KGEG 231813Z 2318/2418 33004KT 4SM BR BKN005
     FM231930 34005KT P6SM FEW015
     FM241000 VRB03KT 5SM BCFG SCT002
     FM241400 06003KT 1/2SM FG OVC003
     FM241700 07004KT 1SM BR BKN007=

USA.gov is the U.S. government's official web portal to all federal, state and local government web resources and services.